sensor_id;sensor_type;location;lat;lon;timestamp;P1;durP1;ratioP1;P2;durP2;ratioP2
37341;SDS011;58643;49.052;8.518;2023-02-15T00:01:51;104.55;;;32.00;;
37341;SDS011;58643;49.052;8.518;2023-02-15T00:04:18;83.32;;;31.38;;
37341;SDS011;58643;49.052;8.518;2023-02-15T00:06:46;81.68;;;31.23;;
37341;SDS011;58643;49.052;8.518;2023-02-15T00:09:12;82.38;;;29.67;;
37341;SDS011;58643;49.052;8.518;2023-02-15T00:11:38;92.38;;;31.02;;
37341;SDS011;58643;49.052;8.518;2023-02-15T00:16:47;83.55;;;30.05;;
37341;SDS011;58643;49.052;8.518;2023-02-15T00:19:15;81.63;;;30.98;;
37341;SDS011;58643;49.052;8.518;2023-02-15T00:21:42;90.47;;;31.98;;
37341;SDS011;58643;49.052;8.518;2023-02-15T00:24:09;88.18;;;31.80;;
37341;SDS011;58643;49.052;8.518;2023-02-15T00:26:37;97.80;;;31.33;;
37341;SDS011;58643;49.052;8.518;2023-02-15T00:29:04;85.38;;;30.48;;
37341;SDS011;58643;49.052;8.518;2023-02-15T00:31:30;80.63;;;29.70;;
37341;SDS011;58643;49.052;8.518;2023-02-15T00:36:35;84.82;;;30.92;;
37341;SDS011;58643;49.052;8.518;2023-02-15T00:39:01;87.32;;;30.27;;
37341;SDS011;58643;49.052;8.518;2023-02-15T00:41:27;97.68;;;30.50;;
37341;SDS011;58643;49.052;8.518;2023-02-15T00:43:52;104.88;;;32.38;;
37341;SDS011;58643;49.052;8.518;2023-02-15T00:46:18;81.60;;;30.27;;
37341;SDS011;58643;49.052;8.518;2023-02-15T00:48:44;87.95;;;31.00;;
37341;SDS011;58643;49.052;8.518;2023-02-15T00:51:09;81.80;;;29.95;;
37341;SDS011;58643;49.052;8.518;2023-02-15T00:53:35;75.45;;;30.38;;
37341;SDS011;58643;49.052;8.518;2023-02-15T00:56:01;92.22;;;31.13;;
37341;SDS011;58643;49.052;8.518;2023-02-15T00:58:26;99.50;;;31.00;;
37341;SDS011;58643;49.052;8.518;2023-02-15T01:00:52;89.55;;;32.42;;
37341;SDS011;58643;49.052;8.518;2023-02-15T01:03:18;78.43;;;31.75;;
37341;SDS011;58643;49.052;8.518;2023-02-15T01:05:46;91.82;;;31.95;;
37341;SDS011;58643;49.052;8.518;2023-02-15T01:08:12;122.40;;;34.00;;
37341;SDS011;58643;49.052;8.518;2023-02-15T01:10:38;81.30;;;31.58;;
37341;SDS011;58643;49.052;8.518;2023-02-15T01:13:04;90.10;;;31.98;;
37341;SDS011;58643;49.052;8.518;2023-02-15T01:15:33;82.32;;;30.35;;
37341;SDS011;58643;49.052;8.518;2023-02-15T01:18:00;87.70;;;30.40;;
37341;SDS011;58643;49.052;8.518;2023-02-15T01:20:26;95.55;;;31.20;;
37341;SDS011;58643;49.052;8.518;2023-02-15T01:22:54;80.60;;;29.45;;
37341;SDS011;58643;49.052;8.518;2023-02-15T01:25:21;88.28;;;29.58;;
37341;SDS011;58643;49.052;8.518;2023-02-15T01:27:48;110.60;;;30.13;;
37341;SDS011;58643;49.052;8.518;2023-02-15T01:30:14;80.97;;;30.80;;
37341;SDS011;58643;49.052;8.518;2023-02-15T01:32:40;85.72;;;29.88;;
37341;SDS011;58643;49.052;8.518;2023-02-15T01:35:06;86.03;;;30.52;;
37341;SDS011;58643;49.052;8.518;2023-02-15T01:37:32;90.78;;;31.50;;
37341;SDS011;58643;49.052;8.518;2023-02-15T01:39:59;91.20;;;31.55;;
37341;SDS011;58643;49.052;8.518;2023-02-15T01:42:25;96.65;;;30.40;;
37341;SDS011;58643;49.052;8.518;2023-02-15T01:44:53;90.90;;;32.72;;
37341;SDS011;58643;49.052;8.518;2023-02-15T01:47:25;88.78;;;31.40;;
37341;SDS011;58643;49.052;8.518;2023-02-15T01:50:03;91.03;;;30.70;;
37341;SDS011;58643;49.052;8.518;2023-02-15T01:52:42;85.55;;;31.77;;
37341;SDS011;58643;49.052;8.518;2023-02-15T01:55:14;87.10;;;32.05;;
37341;SDS011;58643;49.052;8.518;2023-02-15T01:57:40;92.13;;;33.83;;
37341;SDS011;58643;49.052;8.518;2023-02-15T02:00:07;89.05;;;31.98;;
37341;SDS011;58643;49.052;8.518;2023-02-15T02:02:34;94.25;;;32.13;;
37341;SDS011;58643;49.052;8.518;2023-02-15T02:05:01;80.85;;;31.52;;
37341;SDS011;58643;49.052;8.518;2023-02-15T02:07:31;99.90;;;32.60;;
37341;SDS011;58643;49.052;8.518;2023-02-15T02:09:59;90.95;;;33.22;;
37341;SDS011;58643;49.052;8.518;2023-02-15T02:12:26;94.97;;;33.63;;
37341;SDS011;58643;49.052;8.518;2023-02-15T02:14:51;91.22;;;30.77;;
37341;SDS011;58643;49.052;8.518;2023-02-15T02:17:26;106.60;;;33.70;;
37341;SDS011;58643;49.052;8.518;2023-02-15T02:28:12;73.40;;;28.20;;
37341;SDS011;58643;49.052;8.518;2023-02-15T02:33:49;77.55;;;28.58;;
37341;SDS011;58643;49.052;8.518;2023-02-15T02:42:13;70.22;;;26.77;;
37341;SDS011;58643;49.052;8.518;2023-02-15T02:44:46;76.80;;;27.85;;
37341;SDS011;58643;49.052;8.518;2023-02-15T02:47:20;69.40;;;28.58;;
37341;SDS011;58643;49.052;8.518;2023-02-15T02:50:08;76.85;;;29.52;;
37341;SDS011;58643;49.052;8.518;2023-02-15T02:55:20;64.47;;;24.90;;
37341;SDS011;58643;49.052;8.518;2023-02-15T02:57:54;56.33;;;23.75;;
37341;SDS011;58643;49.052;8.518;2023-02-15T03:00:27;54.05;;;24.05;;
37341;SDS011;58643;49.052;8.518;2023-02-15T03:03:00;50.47;;;23.40;;
37341;SDS011;58643;49.052;8.518;2023-02-15T03:05:34;51.45;;;24.48;;
37341;SDS011;58643;49.052;8.518;2023-02-15T03:08:04;62.30;;;24.25;;
37341;SDS011;58643;49.052;8.518;2023-02-15T03:10:34;54.17;;;23.48;;
37341;SDS011;58643;49.052;8.518;2023-02-15T03:13:02;61.70;;;24.33;;
37341;SDS011;58643;49.052;8.518;2023-02-15T03:15:33;57.25;;;25.05;;
37341;SDS011;58643;49.052;8.518;2023-02-15T03:18:21;61.47;;;24.30;;
37341;SDS011;58643;49.052;8.518;2023-02-15T03:20:50;58.10;;;24.85;;
37341;SDS011;58643;49.052;8.518;2023-02-15T03:23:18;59.58;;;24.40;;
37341;SDS011;58643;49.052;8.518;2023-02-15T03:25:49;63.25;;;25.98;;
37341;SDS011;58643;49.052;8.518;2023-02-15T03:28:19;54.50;;;24.15;;
37341;SDS011;58643;49.052;8.518;2023-02-15T03:30:53;57.72;;;24.73;;
37341;SDS011;58643;49.052;8.518;2023-02-15T03:33:22;58.38;;;22.27;;
37341;SDS011;58643;49.052;8.518;2023-02-15T03:36:04;60.97;;;24.67;;
37341;SDS011;58643;49.052;8.518;2023-02-15T03:38:40;51.03;;;23.20;;
37341;SDS011;58643;49.052;8.518;2023-02-15T03:41:12;63.58;;;25.75;;
37341;SDS011;58643;49.052;8.518;2023-02-15T03:43:48;62.75;;;25.75;;
37341;SDS011;58643;49.052;8.518;2023-02-15T03:46:23;63.85;;;25.35;;
37341;SDS011;58643;49.052;8.518;2023-02-15T03:49:38;55.13;;;24.02;;
37341;SDS011;58643;49.052;8.518;2023-02-15T03:51:48;56.08;;;24.48;;
37341;SDS011;58643;49.052;8.518;2023-02-15T03:57:11;68.78;;;26.67;;
37341;SDS011;58643;49.052;8.518;2023-02-15T03:59:58;59.97;;;24.85;;
37341;SDS011;58643;49.052;8.518;2023-02-15T04:02:50;60.90;;;25.15;;
37341;SDS011;58643;49.052;8.518;2023-02-15T04:05:32;63.55;;;25.25;;
37341;SDS011;58643;49.052;8.518;2023-02-15T04:07:57;58.13;;;24.92;;
37341;SDS011;58643;49.052;8.518;2023-02-15T04:10:23;55.00;;;23.52;;
37341;SDS011;58643;49.052;8.518;2023-02-15T04:13:07;54.40;;;22.48;;
37341;SDS011;58643;49.052;8.518;2023-02-15T04:15:33;52.40;;;23.02;;
37341;SDS011;58643;49.052;8.518;2023-02-15T04:18:17;55.90;;;22.98;;
37341;SDS011;58643;49.052;8.518;2023-02-15T04:20:43;55.25;;;24.85;;
37341;SDS011;58643;49.052;8.518;2023-02-15T04:23:28;58.10;;;25.15;;
37341;SDS011;58643;49.052;8.518;2023-02-15T04:26:12;52.95;;;23.92;;
37341;SDS011;58643;49.052;8.518;2023-02-15T04:28:37;48.97;;;21.90;;
37341;SDS011;58643;49.052;8.518;2023-02-15T04:31:03;46.83;;;20.38;;
37341;SDS011;58643;49.052;8.518;2023-02-15T04:33:28;51.25;;;21.60;;
37341;SDS011;58643;49.052;8.518;2023-02-15T04:35:54;53.47;;;23.55;;
37341;SDS011;58643;49.052;8.518;2023-02-15T04:38:21;50.38;;;21.52;;
37341;SDS011;58643;49.052;8.518;2023-02-15T04:40:50;45.67;;;21.42;;
37341;SDS011;58643;49.052;8.518;2023-02-15T04:43:17;52.90;;;21.40;;
37341;SDS011;58643;49.052;8.518;2023-02-15T04:45:49;46.88;;;20.63;;
37341;SDS011;58643;49.052;8.518;2023-02-15T04:48:15;47.88;;;21.00;;
37341;SDS011;58643;49.052;8.518;2023-02-15T04:50:42;43.30;;;19.92;;
37341;SDS011;58643;49.052;8.518;2023-02-15T04:53:07;42.67;;;20.30;;
37341;SDS011;58643;49.052;8.518;2023-02-15T04:55:33;48.28;;;21.42;;
37341;SDS011;58643;49.052;8.518;2023-02-15T04:57:59;45.72;;;20.25;;
37341;SDS011;58643;49.052;8.518;2023-02-15T05:00:24;49.30;;;20.17;;
37341;SDS011;58643;49.052;8.518;2023-02-15T05:02:50;47.80;;;21.92;;
37341;SDS011;58643;49.052;8.518;2023-02-15T05:05:16;46.28;;;20.15;;
37341;SDS011;58643;49.052;8.518;2023-02-15T05:07:42;47.75;;;22.13;;
37341;SDS011;58643;49.052;8.518;2023-02-15T05:10:07;50.25;;;21.85;;
37341;SDS011;58643;49.052;8.518;2023-02-15T05:12:33;53.03;;;22.08;;
37341;SDS011;58643;49.052;8.518;2023-02-15T05:14:59;45.65;;;20.60;;
37341;SDS011;58643;49.052;8.518;2023-02-15T05:17:24;46.40;;;20.90;;
37341;SDS011;58643;49.052;8.518;2023-02-15T05:19:50;53.45;;;21.77;;
37341;SDS011;58643;49.052;8.518;2023-02-15T05:22:15;45.78;;;20.13;;
37341;SDS011;58643;49.052;8.518;2023-02-15T05:24:41;48.80;;;21.15;;
37341;SDS011;58643;49.052;8.518;2023-02-15T05:27:25;45.78;;;20.67;;
37341;SDS011;58643;49.052;8.518;2023-02-15T05:30:09;44.70;;;20.38;;
37341;SDS011;58643;49.052;8.518;2023-02-15T05:32:37;42.47;;;20.55;;
37341;SDS011;58643;49.052;8.518;2023-02-15T05:35:05;47.25;;;20.13;;
37341;SDS011;58643;49.052;8.518;2023-02-15T05:37:31;46.22;;;21.48;;
37341;SDS011;58643;49.052;8.518;2023-02-15T05:39:56;44.78;;;20.90;;
37341;SDS011;58643;49.052;8.518;2023-02-15T05:42:23;50.55;;;20.88;;
37341;SDS011;58643;49.052;8.518;2023-02-15T05:44:49;44.70;;;19.10;;
37341;SDS011;58643;49.052;8.518;2023-02-15T05:47:14;45.47;;;21.67;;
37341;SDS011;58643;49.052;8.518;2023-02-15T05:49:40;44.58;;;20.05;;
37341;SDS011;58643;49.052;8.518;2023-02-15T05:52:05;50.17;;;21.25;;
37341;SDS011;58643;49.052;8.518;2023-02-15T05:54:31;44.95;;;20.85;;
37341;SDS011;58643;49.052;8.518;2023-02-15T05:56:56;42.45;;;19.38;;
37341;SDS011;58643;49.052;8.518;2023-02-15T05:59:22;51.15;;;21.52;;
37341;SDS011;58643;49.052;8.518;2023-02-15T06:01:48;51.90;;;22.00;;
37341;SDS011;58643;49.052;8.518;2023-02-15T06:04:13;50.28;;;21.83;;
37341;SDS011;58643;49.052;8.518;2023-02-15T06:06:39;45.67;;;22.00;;
37341;SDS011;58643;49.052;8.518;2023-02-15T06:09:05;46.95;;;22.60;;
37341;SDS011;58643;49.052;8.518;2023-02-15T06:11:30;50.08;;;21.58;;
37341;SDS011;58643;49.052;8.518;2023-02-15T06:13:56;56.30;;;23.00;;
37341;SDS011;58643;49.052;8.518;2023-02-15T06:16:21;47.50;;;22.05;;
37341;SDS011;58643;49.052;8.518;2023-02-15T06:18:47;51.55;;;23.08;;
37341;SDS011;58643;49.052;8.518;2023-02-15T06:21:13;47.88;;;22.23;;
37341;SDS011;58643;49.052;8.518;2023-02-15T06:23:39;55.38;;;21.55;;
37341;SDS011;58643;49.052;8.518;2023-02-15T06:26:04;48.35;;;21.23;;
37341;SDS011;58643;49.052;8.518;2023-02-15T06:28:30;39.95;;;18.42;;
37341;SDS011;58643;49.052;8.518;2023-02-15T06:30:55;50.85;;;20.30;;
37341;SDS011;58643;49.052;8.518;2023-02-15T06:33:21;47.03;;;20.25;;
37341;SDS011;58643;49.052;8.518;2023-02-15T06:35:47;57.67;;;23.63;;
37341;SDS011;58643;49.052;8.518;2023-02-15T06:38:13;55.05;;;23.90;;
37341;SDS011;58643;49.052;8.518;2023-02-15T06:40:38;52.78;;;22.52;;
37341;SDS011;58643;49.052;8.518;2023-02-15T06:43:04;54.08;;;22.73;;
37341;SDS011;58643;49.052;8.518;2023-02-15T06:45:30;55.53;;;21.08;;
37341;SDS011;58643;49.052;8.518;2023-02-15T06:47:55;47.15;;;21.60;;
37341;SDS011;58643;49.052;8.518;2023-02-15T06:50:21;57.20;;;23.85;;
37341;SDS011;58643;49.052;8.518;2023-02-15T06:52:47;49.83;;;23.17;;
37341;SDS011;58643;49.052;8.518;2023-02-15T06:55:12;51.85;;;21.83;;
37341;SDS011;58643;49.052;8.518;2023-02-15T06:57:38;54.35;;;23.75;;
37341;SDS011;58643;49.052;8.518;2023-02-15T07:00:03;53.55;;;22.58;;
37341;SDS011;58643;49.052;8.518;2023-02-15T07:02:31;51.25;;;21.70;;
37341;SDS011;58643;49.052;8.518;2023-02-15T07:04:56;53.90;;;22.35;;
37341;SDS011;58643;49.052;8.518;2023-02-15T07:07:22;47.75;;;21.10;;
37341;SDS011;58643;49.052;8.518;2023-02-15T07:09:47;45.83;;;21.38;;
37341;SDS011;58643;49.052;8.518;2023-02-15T07:12:13;54.92;;;22.70;;
37341;SDS011;58643;49.052;8.518;2023-02-15T07:14:58;41.70;;;19.55;;
37341;SDS011;58643;49.052;8.518;2023-02-15T07:17:23;46.72;;;20.85;;
37341;SDS011;58643;49.052;8.518;2023-02-15T07:19:49;42.83;;;20.33;;
37341;SDS011;58643;49.052;8.518;2023-02-15T07:22:14;45.45;;;20.02;;
37341;SDS011;58643;49.052;8.518;2023-02-15T07:24:40;49.70;;;22.75;;
37341;SDS011;58643;49.052;8.518;2023-02-15T07:27:06;44.58;;;21.48;;
37341;SDS011;58643;49.052;8.518;2023-02-15T07:29:32;41.13;;;20.00;;
37341;SDS011;58643;49.052;8.518;2023-02-15T07:31:58;41.17;;;19.60;;
37341;SDS011;58643;49.052;8.518;2023-02-15T07:34:23;40.22;;;20.30;;
37341;SDS011;58643;49.052;8.518;2023-02-15T07:36:52;40.90;;;19.77;;
37341;SDS011;58643;49.052;8.518;2023-02-15T07:39:18;39.08;;;18.25;;
37341;SDS011;58643;49.052;8.518;2023-02-15T07:41:44;41.65;;;19.35;;
37341;SDS011;58643;49.052;8.518;2023-02-15T07:44:13;35.88;;;18.92;;
37341;SDS011;58643;49.052;8.518;2023-02-15T07:46:39;38.53;;;18.33;;
37341;SDS011;58643;49.052;8.518;2023-02-15T07:49:05;37.13;;;18.00;;
37341;SDS011;58643;49.052;8.518;2023-02-15T07:51:31;42.97;;;19.98;;
37341;SDS011;58643;49.052;8.518;2023-02-15T07:53:57;44.53;;;20.85;;
37341;SDS011;58643;49.052;8.518;2023-02-15T07:56:22;35.13;;;17.80;;
37341;SDS011;58643;49.052;8.518;2023-02-15T07:58:48;36.92;;;18.58;;
37341;SDS011;58643;49.052;8.518;2023-02-15T08:01:21;40.60;;;18.57;;
37341;SDS011;58643;49.052;8.518;2023-02-15T08:03:49;44.22;;;19.17;;
37341;SDS011;58643;49.052;8.518;2023-02-15T08:06:15;37.47;;;16.80;;
37341;SDS011;58643;49.052;8.518;2023-02-15T08:08:41;34.10;;;17.80;;
37341;SDS011;58643;49.052;8.518;2023-02-15T08:11:20;35.70;;;16.20;;
37341;SDS011;58643;49.052;8.518;2023-02-15T08:13:54;36.25;;;17.83;;
37341;SDS011;58643;49.052;8.518;2023-02-15T08:19:10;33.47;;;16.90;;
37341;SDS011;58643;49.052;8.518;2023-02-15T08:21:44;42.28;;;17.90;;
37341;SDS011;58643;49.052;8.518;2023-02-15T08:24:11;33.83;;;16.75;;
37341;SDS011;58643;49.052;8.518;2023-02-15T08:26:39;32.95;;;16.52;;
37341;SDS011;58643;49.052;8.518;2023-02-15T08:29:05;41.30;;;16.92;;
37341;SDS011;58643;49.052;8.518;2023-02-15T08:31:34;35.60;;;16.60;;
37341;SDS011;58643;49.052;8.518;2023-02-15T08:34:02;36.47;;;18.23;;
37341;SDS011;58643;49.052;8.518;2023-02-15T08:36:28;34.08;;;17.95;;
37341;SDS011;58643;49.052;8.518;2023-02-15T08:38:59;29.83;;;16.50;;
37341;SDS011;58643;49.052;8.518;2023-02-15T08:41:27;29.63;;;15.23;;
37341;SDS011;58643;49.052;8.518;2023-02-15T08:43:55;29.20;;;15.65;;
37341;SDS011;58643;49.052;8.518;2023-02-15T08:46:24;31.15;;;15.85;;
37341;SDS011;58643;49.052;8.518;2023-02-15T08:48:51;27.83;;;14.32;;
37341;SDS011;58643;49.052;8.518;2023-02-15T08:51:21;29.80;;;15.70;;
37341;SDS011;58643;49.052;8.518;2023-02-15T08:53:49;29.23;;;14.88;;
37341;SDS011;58643;49.052;8.518;2023-02-15T08:56:17;27.88;;;14.45;;
37341;SDS011;58643;49.052;8.518;2023-02-15T08:58:45;28.48;;;14.43;;
37341;SDS011;58643;49.052;8.518;2023-02-15T09:01:12;28.95;;;14.38;;
37341;SDS011;58643;49.052;8.518;2023-02-15T09:03:43;28.55;;;16.02;;
37341;SDS011;58643;49.052;8.518;2023-02-15T09:06:10;27.08;;;14.40;;
37341;SDS011;58643;49.052;8.518;2023-02-15T09:08:36;27.13;;;15.02;;
37341;SDS011;58643;49.052;8.518;2023-02-15T09:11:09;26.05;;;14.68;;
37341;SDS011;58643;49.052;8.518;2023-02-15T09:13:48;26.08;;;14.02;;
37341;SDS011;58643;49.052;8.518;2023-02-15T09:16:17;26.60;;;14.25;;
37341;SDS011;58643;49.052;8.518;2023-02-15T09:18:43;27.73;;;14.95;;
37341;SDS011;58643;49.052;8.518;2023-02-15T09:21:10;29.15;;;15.38;;
37341;SDS011;58643;49.052;8.518;2023-02-15T09:23:40;28.98;;;15.88;;
37341;SDS011;58643;49.052;8.518;2023-02-15T09:26:26;27.77;;;14.75;;
37341;SDS011;58643;49.052;8.518;2023-02-15T09:28:54;23.35;;;13.40;;
37341;SDS011;58643;49.052;8.518;2023-02-15T09:31:21;25.83;;;12.60;;
37341;SDS011;58643;49.052;8.518;2023-02-15T09:33:49;29.30;;;15.67;;
37341;SDS011;58643;49.052;8.518;2023-02-15T09:36:22;23.48;;;11.50;;
37341;SDS011;58643;49.052;8.518;2023-02-15T09:38:59;22.95;;;13.00;;
37341;SDS011;58643;49.052;8.518;2023-02-15T09:55:37;26.38;;;14.80;;
37341;SDS011;58643;49.052;8.518;2023-02-15T10:03:57;25.02;;;13.45;;
37341;SDS011;58643;49.052;8.518;2023-02-15T10:12:40;28.67;;;16.00;;
37341;SDS011;58643;49.052;8.518;2023-02-15T10:15:39;24.42;;;14.43;;
37341;SDS011;58643;49.052;8.518;2023-02-15T10:22:06;24.38;;;14.57;;
37341;SDS011;58643;49.052;8.518;2023-02-15T10:24:46;23.90;;;13.65;;
37341;SDS011;58643;49.052;8.518;2023-02-15T10:27:21;25.25;;;13.57;;
37341;SDS011;58643;49.052;8.518;2023-02-15T10:46:05;27.58;;;13.95;;
37341;SDS011;58643;49.052;8.518;2023-02-15T10:54:21;27.85;;;14.48;;
37341;SDS011;58643;49.052;8.518;2023-02-15T10:57:08;24.40;;;14.57;;
37341;SDS011;58643;49.052;8.518;2023-02-15T10:59:47;22.63;;;13.98;;
37341;SDS011;58643;49.052;8.518;2023-02-15T11:04:58;20.40;;;12.50;;
37341;SDS011;58643;49.052;8.518;2023-02-15T11:07:40;23.23;;;12.63;;
37341;SDS011;58643;49.052;8.518;2023-02-15T11:13:01;23.63;;;13.35;;
37341;SDS011;58643;49.052;8.518;2023-02-15T11:15:31;21.80;;;13.18;;
37341;SDS011;58643;49.052;8.518;2023-02-15T11:18:44;26.13;;;14.38;;
37341;SDS011;58643;49.052;8.518;2023-02-15T11:23:29;23.70;;;13.00;;
37341;SDS011;58643;49.052;8.518;2023-02-15T11:26:00;23.63;;;14.00;;
37341;SDS011;58643;49.052;8.518;2023-02-15T11:28:33;24.35;;;13.85;;
37341;SDS011;58643;49.052;8.518;2023-02-15T11:31:11;26.13;;;15.10;;
37341;SDS011;58643;49.052;8.518;2023-02-15T11:33:46;28.13;;;16.05;;
37341;SDS011;58643;49.052;8.518;2023-02-15T11:36:21;28.40;;;15.35;;
37341;SDS011;58643;49.052;8.518;2023-02-15T11:38:58;27.75;;;15.07;;
37341;SDS011;58643;49.052;8.518;2023-02-15T11:41:29;23.45;;;13.70;;
37341;SDS011;58643;49.052;8.518;2023-02-15T11:46:28;26.92;;;15.35;;
37341;SDS011;58643;49.052;8.518;2023-02-15T11:48:53;25.13;;;15.15;;
37341;SDS011;58643;49.052;8.518;2023-02-15T11:51:20;25.70;;;14.82;;
37341;SDS011;58643;49.052;8.518;2023-02-15T11:53:48;29.08;;;15.60;;
37341;SDS011;58643;49.052;8.518;2023-02-15T11:56:19;28.30;;;14.48;;
37341;SDS011;58643;49.052;8.518;2023-02-15T11:58:48;23.98;;;14.93;;
37341;SDS011;58643;49.052;8.518;2023-02-15T12:04:10;26.83;;;15.05;;
37341;SDS011;58643;49.052;8.518;2023-02-15T12:09:45;28.88;;;15.45;;
37341;SDS011;58643;49.052;8.518;2023-02-15T12:12:30;28.50;;;14.77;;
37341;SDS011;58643;49.052;8.518;2023-02-15T12:14:58;26.15;;;15.27;;
37341;SDS011;58643;49.052;8.518;2023-02-15T12:17:26;25.70;;;15.20;;
37341;SDS011;58643;49.052;8.518;2023-02-15T12:19:59;24.65;;;13.80;;
37341;SDS011;58643;49.052;8.518;2023-02-15T12:22:27;25.02;;;14.32;;
37341;SDS011;58643;49.052;8.518;2023-02-15T12:27:29;24.30;;;14.07;;
37341;SDS011;58643;49.052;8.518;2023-02-15T12:29:59;26.42;;;15.45;;
37341;SDS011;58643;49.052;8.518;2023-02-15T12:32:34;28.17;;;14.60;;
37341;SDS011;58643;49.052;8.518;2023-02-15T12:35:08;25.08;;;15.05;;
37341;SDS011;58643;49.052;8.518;2023-02-15T12:37:39;24.90;;;14.70;;
37341;SDS011;58643;49.052;8.518;2023-02-15T12:42:53;25.23;;;15.35;;
37341;SDS011;58643;49.052;8.518;2023-02-15T12:45:29;28.55;;;15.98;;
37341;SDS011;58643;49.052;8.518;2023-02-15T12:50:38;28.02;;;15.52;;
37341;SDS011;58643;49.052;8.518;2023-02-15T12:53:13;25.00;;;15.05;;
37341;SDS011;58643;49.052;8.518;2023-02-15T12:55:54;26.63;;;15.57;;
37341;SDS011;58643;49.052;8.518;2023-02-15T12:58:22;26.77;;;15.95;;
37341;SDS011;58643;49.052;8.518;2023-02-15T13:03:38;25.50;;;16.20;;
37341;SDS011;58643;49.052;8.518;2023-02-15T13:06:17;24.30;;;15.63;;
37341;SDS011;58643;49.052;8.518;2023-02-15T13:08:48;30.25;;;18.63;;
37341;SDS011;58643;49.052;8.518;2023-02-15T13:11:30;33.63;;;18.50;;
37341;SDS011;58643;49.052;8.518;2023-02-15T13:14:00;29.48;;;18.63;;
37341;SDS011;58643;49.052;8.518;2023-02-15T13:16:33;24.63;;;15.73;;
37341;SDS011;58643;49.052;8.518;2023-02-15T13:19:02;28.77;;;17.77;;
37341;SDS011;58643;49.052;8.518;2023-02-15T13:21:33;26.00;;;15.65;;
37341;SDS011;58643;49.052;8.518;2023-02-15T13:24:04;29.33;;;18.63;;
37341;SDS011;58643;49.052;8.518;2023-02-15T13:26:32;26.17;;;15.07;;
37341;SDS011;58643;49.052;8.518;2023-02-15T13:29:06;27.02;;;16.55;;
37341;SDS011;58643;49.052;8.518;2023-02-15T13:31:40;26.73;;;16.52;;
37341;SDS011;58643;49.052;8.518;2023-02-15T13:34:10;26.90;;;16.25;;
37341;SDS011;58643;49.052;8.518;2023-02-15T13:36:51;27.73;;;16.30;;
37341;SDS011;58643;49.052;8.518;2023-02-15T13:39:37;27.08;;;16.38;;
37341;SDS011;58643;49.052;8.518;2023-02-15T13:42:22;23.98;;;15.02;;
37341;SDS011;58643;49.052;8.518;2023-02-15T13:45:21;24.95;;;14.90;;
37341;SDS011;58643;49.052;8.518;2023-02-15T13:51:13;23.00;;;14.18;;
37341;SDS011;58643;49.052;8.518;2023-02-15T13:58:58;21.33;;;13.73;;
37341;SDS011;58643;49.052;8.518;2023-02-15T14:07:09;25.52;;;15.13;;
37341;SDS011;58643;49.052;8.518;2023-02-15T14:09:43;22.63;;;13.95;;
37341;SDS011;58643;49.052;8.518;2023-02-15T14:21:14;24.88;;;15.45;;
37341;SDS011;58643;49.052;8.518;2023-02-15T14:24:01;24.13;;;14.15;;
37341;SDS011;58643;49.052;8.518;2023-02-15T14:32:16;21.75;;;14.15;;
37341;SDS011;58643;49.052;8.518;2023-02-15T14:34:50;20.35;;;13.70;;
37341;SDS011;58643;49.052;8.518;2023-02-15T14:37:21;22.50;;;14.85;;
37341;SDS011;58643;49.052;8.518;2023-02-15T14:40:06;20.73;;;13.38;;
37341;SDS011;58643;49.052;8.518;2023-02-15T14:43:47;20.67;;;13.88;;
37341;SDS011;58643;49.052;8.518;2023-02-15T14:46:07;22.52;;;13.60;;
37341;SDS011;58643;49.052;8.518;2023-02-15T14:48:53;20.23;;;14.15;;
37341;SDS011;58643;49.052;8.518;2023-02-15T14:56:46;18.73;;;13.43;;
37341;SDS011;58643;49.052;8.518;2023-02-15T15:02:18;18.38;;;12.38;;
37341;SDS011;58643;49.052;8.518;2023-02-15T15:05:11;21.80;;;13.77;;
37341;SDS011;58643;49.052;8.518;2023-02-15T15:08:19;19.08;;;13.95;;
37341;SDS011;58643;49.052;8.518;2023-02-15T15:13:57;23.20;;;14.00;;
37341;SDS011;58643;49.052;8.518;2023-02-15T15:16:57;24.58;;;14.23;;
37341;SDS011;58643;49.052;8.518;2023-02-15T15:19:56;20.85;;;14.43;;
37341;SDS011;58643;49.052;8.518;2023-02-15T15:22:23;19.65;;;13.77;;
37341;SDS011;58643;49.052;8.518;2023-02-15T15:24:51;21.10;;;14.38;;
37341;SDS011;58643;49.052;8.518;2023-02-15T15:33:16;23.52;;;15.88;;
37341;SDS011;58643;49.052;8.518;2023-02-15T15:36:09;23.73;;;16.45;;
37341;SDS011;58643;49.052;8.518;2023-02-15T15:41:46;26.98;;;16.40;;
37341;SDS011;58643;49.052;8.518;2023-02-15T15:50:40;23.33;;;15.05;;
37341;SDS011;58643;49.052;8.518;2023-02-15T15:53:10;24.92;;;17.10;;
37341;SDS011;58643;49.052;8.518;2023-02-15T15:55:45;26.10;;;16.25;;
37341;SDS011;58643;49.052;8.518;2023-02-15T15:58:14;25.02;;;16.27;;
37341;SDS011;58643;49.052;8.518;2023-02-15T16:03:20;25.13;;;16.42;;
37341;SDS011;58643;49.052;8.518;2023-02-15T16:05:47;29.02;;;17.77;;
37341;SDS011;58643;49.052;8.518;2023-02-15T16:08:52;30.20;;;18.67;;
37341;SDS011;58643;49.052;8.518;2023-02-15T16:11:22;32.72;;;18.30;;
37341;SDS011;58643;49.052;8.518;2023-02-15T16:13:52;29.13;;;18.10;;
37341;SDS011;58643;49.052;8.518;2023-02-15T16:16:22;27.60;;;18.50;;
37341;SDS011;58643;49.052;8.518;2023-02-15T16:18:52;32.70;;;19.48;;
37341;SDS011;58643;49.052;8.518;2023-02-15T16:21:27;34.53;;;19.90;;
37341;SDS011;58643;49.052;8.518;2023-02-15T16:29:47;41.55;;;25.02;;
37341;SDS011;58643;49.052;8.518;2023-02-15T16:34:58;41.90;;;25.45;;
37341;SDS011;58643;49.052;8.518;2023-02-15T16:37:26;56.30;;;26.92;;
37341;SDS011;58643;49.052;8.518;2023-02-15T16:39:56;42.22;;;25.40;;
37341;SDS011;58643;49.052;8.518;2023-02-15T16:42:22;47.78;;;25.75;;
37341;SDS011;58643;49.052;8.518;2023-02-15T16:44:50;45.67;;;25.27;;
37341;SDS011;58643;49.052;8.518;2023-02-15T16:47:27;39.20;;;23.27;;
37341;SDS011;58643;49.052;8.518;2023-02-15T16:49:57;54.63;;;28.02;;
37341;SDS011;58643;49.052;8.518;2023-02-15T16:52:26;42.92;;;25.10;;
37341;SDS011;58643;49.052;8.518;2023-02-15T16:55:00;54.17;;;29.38;;
37341;SDS011;58643;49.052;8.518;2023-02-15T16:57:33;49.83;;;28.88;;
37341;SDS011;58643;49.052;8.518;2023-02-15T17:00:06;53.35;;;28.85;;
37341;SDS011;58643;49.052;8.518;2023-02-15T17:02:42;52.67;;;29.58;;
37341;SDS011;58643;49.052;8.518;2023-02-15T17:05:19;52.42;;;27.98;;
37341;SDS011;58643;49.052;8.518;2023-02-15T17:08:04;49.63;;;28.05;;
37341;SDS011;58643;49.052;8.518;2023-02-15T17:10:37;48.80;;;26.48;;
37341;SDS011;58643;49.052;8.518;2023-02-15T17:15:40;45.55;;;25.13;;
37341;SDS011;58643;49.052;8.518;2023-02-15T17:18:16;48.15;;;27.17;;
37341;SDS011;58643;49.052;8.518;2023-02-15T17:20:45;46.88;;;26.80;;
37341;SDS011;58643;49.052;8.518;2023-02-15T17:25:44;47.50;;;25.95;;
37341;SDS011;58643;49.052;8.518;2023-02-15T17:28:16;44.67;;;25.33;;
37341;SDS011;58643;49.052;8.518;2023-02-15T17:30:44;42.53;;;24.10;;
37341;SDS011;58643;49.052;8.518;2023-02-15T17:33:21;41.30;;;22.80;;
37341;SDS011;58643;49.052;8.518;2023-02-15T17:38:30;47.78;;;24.65;;
37341;SDS011;58643;49.052;8.518;2023-02-15T17:40:56;53.35;;;28.60;;
37341;SDS011;58643;49.052;8.518;2023-02-15T17:43:23;55.67;;;31.50;;
37341;SDS011;58643;49.052;8.518;2023-02-15T17:45:49;59.85;;;30.20;;
37341;SDS011;58643;49.052;8.518;2023-02-15T17:48:22;47.17;;;29.10;;